sensor_id;sensor_type;location;lat;lon;timestamp;P1;durP1;ratioP1;P2;durP2;ratioP2
6101;SDS011;3081;50.584;7.032;2023-04-16T00:01:16;22.77;;;10.53;;
6101;SDS011;3081;50.584;7.032;2023-04-16T00:03:43;24.70;;;10.80;;
6101;SDS011;3081;50.584;7.032;2023-04-16T00:06:10;12.50;;;6.13;;
6101;SDS011;3081;50.584;7.032;2023-04-16T00:08:37;14.87;;;7.10;;
6101;SDS011;3081;50.584;7.032;2023-04-16T00:11:05;13.17;;;6.03;;
6101;SDS011;3081;50.584;7.032;2023-04-16T00:13:32;28.30;;;9.07;;
6101;SDS011;3081;50.584;7.032;2023-04-16T00:16:00;14.93;;;8.07;;
6101;SDS011;3081;50.584;7.032;2023-04-16T00:18:27;9.67;;;6.20;;
6101;SDS011;3081;50.584;7.032;2023-04-16T00:20:55;14.17;;;7.77;;
6101;SDS011;3081;50.584;7.032;2023-04-16T00:23:21;14.17;;;8.90;;
6101;SDS011;3081;50.584;7.032;2023-04-16T00:25:49;22.93;;;8.00;;
6101;SDS011;3081;50.584;7.032;2023-04-16T00:28:17;13.17;;;5.80;;
6101;SDS011;3081;50.584;7.032;2023-04-16T00:30:45;24.07;;;11.50;;
6101;SDS011;3081;50.584;7.032;2023-04-16T00:33:13;20.27;;;8.00;;
6101;SDS011;3081;50.584;7.032;2023-04-16T00:35:41;16.67;;;8.40;;
6101;SDS011;3081;50.584;7.032;2023-04-16T00:38:10;17.13;;;7.67;;
6101;SDS011;3081;50.584;7.032;2023-04-16T00:40:37;17.47;;;10.17;;
6101;SDS011;3081;50.584;7.032;2023-04-16T00:43:04;12.17;;;6.90;;
6101;SDS011;3081;50.584;7.032;2023-04-16T00:45:31;15.33;;;8.67;;
6101;SDS011;3081;50.584;7.032;2023-04-16T00:47:58;10.97;;;6.67;;
6101;SDS011;3081;50.584;7.032;2023-04-16T00:50:28;12.90;;;7.30;;
6101;SDS011;3081;50.584;7.032;2023-04-16T00:52:55;17.40;;;7.80;;
6101;SDS011;3081;50.584;7.032;2023-04-16T00:55:22;16.33;;;9.80;;
6101;SDS011;3081;50.584;7.032;2023-04-16T00:57:49;12.60;;;7.07;;
6101;SDS011;3081;50.584;7.032;2023-04-16T01:00:16;14.93;;;7.60;;
6101;SDS011;3081;50.584;7.032;2023-04-16T01:02:43;18.63;;;8.50;;
6101;SDS011;3081;50.584;7.032;2023-04-16T01:05:10;14.80;;;8.90;;
6101;SDS011;3081;50.584;7.032;2023-04-16T01:07:38;18.20;;;8.83;;
6101;SDS011;3081;50.584;7.032;2023-04-16T01:10:05;11.93;;;5.97;;
6101;SDS011;3081;50.584;7.032;2023-04-16T01:12:33;17.53;;;9.00;;
6101;SDS011;3081;50.584;7.032;2023-04-16T01:14:59;18.63;;;8.70;;
6101;SDS011;3081;50.584;7.032;2023-04-16T01:17:27;25.87;;;11.00;;
6101;SDS011;3081;50.584;7.032;2023-04-16T01:19:56;12.07;;;5.90;;
6101;SDS011;3081;50.584;7.032;2023-04-16T01:22:25;15.40;;;9.17;;
6101;SDS011;3081;50.584;7.032;2023-04-16T01:24:52;15.27;;;7.97;;
6101;SDS011;3081;50.584;7.032;2023-04-16T01:27:19;23.63;;;9.80;;
6101;SDS011;3081;50.584;7.032;2023-04-16T01:29:46;18.30;;;9.27;;
6101;SDS011;3081;50.584;7.032;2023-04-16T01:32:13;25.03;;;11.60;;
6101;SDS011;3081;50.584;7.032;2023-04-16T01:34:40;22.90;;;10.70;;
6101;SDS011;3081;50.584;7.032;2023-04-16T01:37:07;11.77;;;6.00;;
6101;SDS011;3081;50.584;7.032;2023-04-16T01:39:35;15.63;;;8.97;;
6101;SDS011;3081;50.584;7.032;2023-04-16T01:42:02;14.50;;;7.10;;
6101;SDS011;3081;50.584;7.032;2023-04-16T01:44:29;20.43;;;7.67;;
6101;SDS011;3081;50.584;7.032;2023-04-16T01:46:56;24.53;;;10.13;;
6101;SDS011;3081;50.584;7.032;2023-04-16T01:49:22;14.50;;;8.73;;
6101;SDS011;3081;50.584;7.032;2023-04-16T01:51:50;19.63;;;9.10;;
6101;SDS011;3081;50.584;7.032;2023-04-16T01:54:17;17.57;;;8.03;;
6101;SDS011;3081;50.584;7.032;2023-04-16T01:56:45;21.47;;;9.87;;
6101;SDS011;3081;50.584;7.032;2023-04-16T01:59:12;26.10;;;11.70;;
6101;SDS011;3081;50.584;7.032;2023-04-16T02:01:39;29.30;;;11.90;;
6101;SDS011;3081;50.584;7.032;2023-04-16T02:04:06;24.90;;;11.33;;
6101;SDS011;3081;50.584;7.032;2023-04-16T02:06:33;8.97;;;5.20;;
6101;SDS011;3081;50.584;7.032;2023-04-16T02:09:00;14.67;;;8.17;;
6101;SDS011;3081;50.584;7.032;2023-04-16T02:11:27;14.10;;;6.10;;
6101;SDS011;3081;50.584;7.032;2023-04-16T02:13:55;13.97;;;8.37;;
6101;SDS011;3081;50.584;7.032;2023-04-16T02:16:22;19.60;;;9.73;;
6101;SDS011;3081;50.584;7.032;2023-04-16T02:18:50;15.87;;;8.93;;
6101;SDS011;3081;50.584;7.032;2023-04-16T02:21:17;17.57;;;8.60;;
6101;SDS011;3081;50.584;7.032;2023-04-16T02:23:44;15.13;;;7.33;;
6101;SDS011;3081;50.584;7.032;2023-04-16T02:26:12;20.03;;;10.10;;
6101;SDS011;3081;50.584;7.032;2023-04-16T02:28:38;16.23;;;9.67;;
6101;SDS011;3081;50.584;7.032;2023-04-16T02:31:07;18.67;;;10.30;;
6101;SDS011;3081;50.584;7.032;2023-04-16T02:33:34;18.27;;;11.73;;
6101;SDS011;3081;50.584;7.032;2023-04-16T02:36:01;19.47;;;8.23;;
6101;SDS011;3081;50.584;7.032;2023-04-16T02:38:27;23.47;;;12.80;;
6101;SDS011;3081;50.584;7.032;2023-04-16T02:40:54;19.80;;;9.83;;
6101;SDS011;3081;50.584;7.032;2023-04-16T02:43:21;33.43;;;14.30;;
6101;SDS011;3081;50.584;7.032;2023-04-16T02:45:48;22.77;;;12.00;;
6101;SDS011;3081;50.584;7.032;2023-04-16T02:48:16;26.33;;;12.03;;
6101;SDS011;3081;50.584;7.032;2023-04-16T02:50:43;23.90;;;9.90;;
6101;SDS011;3081;50.584;7.032;2023-04-16T02:53:10;17.50;;;9.03;;
6101;SDS011;3081;50.584;7.032;2023-04-16T02:55:37;20.27;;;8.10;;
6101;SDS011;3081;50.584;7.032;2023-04-16T02:58:04;22.83;;;10.77;;
6101;SDS011;3081;50.584;7.032;2023-04-16T03:00:31;27.93;;;6.80;;
6101;SDS011;3081;50.584;7.032;2023-04-16T03:02:58;23.80;;;10.20;;
6101;SDS011;3081;50.584;7.032;2023-04-16T03:05:26;25.27;;;8.63;;
6101;SDS011;3081;50.584;7.032;2023-04-16T03:07:53;19.03;;;8.83;;
6101;SDS011;3081;50.584;7.032;2023-04-16T03:10:21;19.70;;;10.03;;
6101;SDS011;3081;50.584;7.032;2023-04-16T03:12:48;21.93;;;10.37;;
6101;SDS011;3081;50.584;7.032;2023-04-16T03:15:15;24.10;;;11.53;;
6101;SDS011;3081;50.584;7.032;2023-04-16T03:17:42;29.47;;;10.90;;
6101;SDS011;3081;50.584;7.032;2023-04-16T03:20:09;20.80;;;8.77;;
6101;SDS011;3081;50.584;7.032;2023-04-16T03:22:38;25.77;;;11.60;;
6101;SDS011;3081;50.584;7.032;2023-04-16T03:25:05;18.03;;;10.70;;
6101;SDS011;3081;50.584;7.032;2023-04-16T03:27:33;26.40;;;12.03;;
6101;SDS011;3081;50.584;7.032;2023-04-16T03:30:00;24.80;;;10.03;;
6101;SDS011;3081;50.584;7.032;2023-04-16T03:32:28;27.63;;;12.20;;
6101;SDS011;3081;50.584;7.032;2023-04-16T03:34:55;31.77;;;12.60;;
6101;SDS011;3081;50.584;7.032;2023-04-16T03:37:22;45.17;;;13.40;;
6101;SDS011;3081;50.584;7.032;2023-04-16T03:39:50;31.00;;;12.43;;
6101;SDS011;3081;50.584;7.032;2023-04-16T03:42:17;23.90;;;6.97;;
6101;SDS011;3081;50.584;7.032;2023-04-16T03:44:44;33.03;;;12.30;;
6101;SDS011;3081;50.584;7.032;2023-04-16T03:47:11;58.13;;;14.97;;
6101;SDS011;3081;50.584;7.032;2023-04-16T03:49:38;50.43;;;13.77;;
6101;SDS011;3081;50.584;7.032;2023-04-16T03:52:05;33.17;;;11.33;;
6101;SDS011;3081;50.584;7.032;2023-04-16T03:54:32;32.10;;;9.50;;
6101;SDS011;3081;50.584;7.032;2023-04-16T03:57:00;42.13;;;14.07;;
6101;SDS011;3081;50.584;7.032;2023-04-16T03:59:27;47.13;;;13.97;;
6101;SDS011;3081;50.584;7.032;2023-04-16T04:01:54;32.73;;;10.70;;
6101;SDS011;3081;50.584;7.032;2023-04-16T04:04:21;22.03;;;10.27;;
6101;SDS011;3081;50.584;7.032;2023-04-16T04:06:48;34.93;;;12.97;;
6101;SDS011;3081;50.584;7.032;2023-04-16T04:09:15;27.80;;;10.53;;
6101;SDS011;3081;50.584;7.032;2023-04-16T04:11:41;19.73;;;7.33;;
6101;SDS011;3081;50.584;7.032;2023-04-16T04:14:10;28.87;;;9.63;;
6101;SDS011;3081;50.584;7.032;2023-04-16T04:16:37;15.27;;;7.80;;
6101;SDS011;3081;50.584;7.032;2023-04-16T04:19:03;50.13;;;15.77;;
6101;SDS011;3081;50.584;7.032;2023-04-16T04:21:30;11.00;;;5.50;;
6101;SDS011;3081;50.584;7.032;2023-04-16T04:23:57;26.43;;;11.93;;
6101;SDS011;3081;50.584;7.032;2023-04-16T04:26:24;36.83;;;13.20;;
6101;SDS011;3081;50.584;7.032;2023-04-16T04:28:51;52.77;;;13.20;;
6101;SDS011;3081;50.584;7.032;2023-04-16T04:31:19;34.17;;;9.57;;
6101;SDS011;3081;50.584;7.032;2023-04-16T04:33:46;33.90;;;8.77;;
6101;SDS011;3081;50.584;7.032;2023-04-16T04:36:13;17.20;;;7.50;;
6101;SDS011;3081;50.584;7.032;2023-04-16T04:38:40;36.53;;;15.17;;
6101;SDS011;3081;50.584;7.032;2023-04-16T04:41:07;23.93;;;9.67;;
6101;SDS011;3081;50.584;7.032;2023-04-16T04:43:34;50.33;;;14.10;;
6101;SDS011;3081;50.584;7.032;2023-04-16T04:46:00;40.20;;;12.40;;
6101;SDS011;3081;50.584;7.032;2023-04-16T04:48:29;20.57;;;8.37;;
6101;SDS011;3081;50.584;7.032;2023-04-16T04:50:56;39.00;;;11.37;;
6101;SDS011;3081;50.584;7.032;2023-04-16T04:53:22;55.80;;;15.83;;
6101;SDS011;3081;50.584;7.032;2023-04-16T04:55:49;30.10;;;12.43;;
6101;SDS011;3081;50.584;7.032;2023-04-16T04:58:16;30.17;;;13.37;;
6101;SDS011;3081;50.584;7.032;2023-04-16T05:00:43;55.25;;;17.00;;
6101;SDS011;3081;50.584;7.032;2023-04-16T05:03:10;38.63;;;11.00;;
6101;SDS011;3081;50.584;7.032;2023-04-16T05:05:40;37.47;;;11.87;;
6101;SDS011;3081;50.584;7.032;2023-04-16T05:08:06;27.60;;;13.90;;
6101;SDS011;3081;50.584;7.032;2023-04-16T05:10:33;47.60;;;15.80;;
6101;SDS011;3081;50.584;7.032;2023-04-16T05:13:00;33.00;;;13.43;;
6101;SDS011;3081;50.584;7.032;2023-04-16T05:15:27;49.20;;;14.10;;
6101;SDS011;3081;50.584;7.032;2023-04-16T05:17:54;28.67;;;10.83;;
6101;SDS011;3081;50.584;7.032;2023-04-16T05:20:21;32.10;;;12.93;;
6101;SDS011;3081;50.584;7.032;2023-04-16T05:22:50;44.03;;;13.77;;
6101;SDS011;3081;50.584;7.032;2023-04-16T05:25:17;33.27;;;13.27;;
6101;SDS011;3081;50.584;7.032;2023-04-16T05:27:44;33.90;;;10.57;;
6101;SDS011;3081;50.584;7.032;2023-04-16T05:30:11;52.83;;;13.20;;
6101;SDS011;3081;50.584;7.032;2023-04-16T05:32:38;49.07;;;15.70;;
6101;SDS011;3081;50.584;7.032;2023-04-16T05:35:06;53.03;;;13.90;;
6101;SDS011;3081;50.584;7.032;2023-04-16T05:37:33;65.80;;;15.77;;
6101;SDS011;3081;50.584;7.032;2023-04-16T05:40:01;55.57;;;14.20;;
6101;SDS011;3081;50.584;7.032;2023-04-16T05:42:29;102.07;;;18.20;;
6101;SDS011;3081;50.584;7.032;2023-04-16T05:44:56;52.77;;;15.40;;
6101;SDS011;3081;50.584;7.032;2023-04-16T05:47:23;55.83;;;14.60;;
6101;SDS011;3081;50.584;7.032;2023-04-16T05:49:50;83.97;;;16.27;;
6101;SDS011;3081;50.584;7.032;2023-04-16T05:52:16;44.40;;;13.87;;
6101;SDS011;3081;50.584;7.032;2023-04-16T05:54:43;72.40;;;17.33;;
6101;SDS011;3081;50.584;7.032;2023-04-16T05:57:11;72.53;;;17.77;;
6101;SDS011;3081;50.584;7.032;2023-04-16T05:59:38;47.83;;;14.00;;
6101;SDS011;3081;50.584;7.032;2023-04-16T06:02:05;85.03;;;18.60;;
6101;SDS011;3081;50.584;7.032;2023-04-16T06:04:32;64.40;;;17.23;;
6101;SDS011;3081;50.584;7.032;2023-04-16T06:07:01;21.80;;;10.37;;
6101;SDS011;3081;50.584;7.032;2023-04-16T06:09:28;44.90;;;11.47;;
6101;SDS011;3081;50.584;7.032;2023-04-16T06:11:55;60.37;;;17.00;;
6101;SDS011;3081;50.584;7.032;2023-04-16T06:14:23;90.70;;;17.57;;
6101;SDS011;3081;50.584;7.032;2023-04-16T06:16:50;75.67;;;17.80;;
6101;SDS011;3081;50.584;7.032;2023-04-16T06:19:17;28.93;;;9.53;;
6101;SDS011;3081;50.584;7.032;2023-04-16T06:21:44;61.13;;;17.43;;
6101;SDS011;3081;50.584;7.032;2023-04-16T06:24:11;59.70;;;15.97;;
6101;SDS011;3081;50.584;7.032;2023-04-16T06:26:38;74.40;;;18.40;;
6101;SDS011;3081;50.584;7.032;2023-04-16T06:29:05;47.03;;;15.10;;
6101;SDS011;3081;50.584;7.032;2023-04-16T06:31:33;24.23;;;7.87;;
6101;SDS011;3081;50.584;7.032;2023-04-16T06:34:00;46.10;;;13.10;;
6101;SDS011;3081;50.584;7.032;2023-04-16T06:36:27;25.73;;;7.77;;
6101;SDS011;3081;50.584;7.032;2023-04-16T06:38:55;23.00;;;8.80;;
6101;SDS011;3081;50.584;7.032;2023-04-16T06:41:22;25.43;;;9.57;;
6101;SDS011;3081;50.584;7.032;2023-04-16T06:43:50;37.70;;;9.50;;
6101;SDS011;3081;50.584;7.032;2023-04-16T06:46:17;16.90;;;7.47;;
6101;SDS011;3081;50.584;7.032;2023-04-16T06:48:45;10.50;;;5.40;;
6101;SDS011;3081;50.584;7.032;2023-04-16T06:51:14;15.30;;;6.00;;
6101;SDS011;3081;50.584;7.032;2023-04-16T06:53:40;21.40;;;9.73;;
6101;SDS011;3081;50.584;7.032;2023-04-16T06:56:07;29.57;;;11.60;;
6101;SDS011;3081;50.584;7.032;2023-04-16T06:58:35;24.20;;;10.40;;
6101;SDS011;3081;50.584;7.032;2023-04-16T07:01:01;46.33;;;12.37;;
6101;SDS011;3081;50.584;7.032;2023-04-16T07:03:29;23.77;;;10.17;;
6101;SDS011;3081;50.584;7.032;2023-04-16T07:05:58;26.13;;;8.93;;
6101;SDS011;3081;50.584;7.032;2023-04-16T07:08:25;24.10;;;8.07;;
6101;SDS011;3081;50.584;7.032;2023-04-16T07:10:52;19.80;;;6.30;;
6101;SDS011;3081;50.584;7.032;2023-04-16T07:13:19;19.03;;;8.53;;
6101;SDS011;3081;50.584;7.032;2023-04-16T07:15:46;26.90;;;8.67;;
6101;SDS011;3081;50.584;7.032;2023-04-16T07:18:13;29.50;;;10.20;;
6101;SDS011;3081;50.584;7.032;2023-04-16T07:20:40;20.67;;;9.33;;
6101;SDS011;3081;50.584;7.032;2023-04-16T07:23:08;43.40;;;11.47;;
6101;SDS011;3081;50.584;7.032;2023-04-16T07:25:35;25.80;;;9.87;;
6101;SDS011;3081;50.584;7.032;2023-04-16T07:28:02;22.47;;;10.17;;
6101;SDS011;3081;50.584;7.032;2023-04-16T07:30:30;16.93;;;8.17;;
6101;SDS011;3081;50.584;7.032;2023-04-16T07:32:58;21.50;;;9.67;;
6101;SDS011;3081;50.584;7.032;2023-04-16T07:35:25;20.90;;;9.63;;
6101;SDS011;3081;50.584;7.032;2023-04-16T07:37:52;14.33;;;6.90;;
6101;SDS011;3081;50.584;7.032;2023-04-16T07:40:21;18.10;;;9.03;;
6101;SDS011;3081;50.584;7.032;2023-04-16T07:42:49;21.13;;;8.93;;
6101;SDS011;3081;50.584;7.032;2023-04-16T07:45:16;20.07;;;7.20;;
6101;SDS011;3081;50.584;7.032;2023-04-16T07:47:43;15.47;;;7.73;;
6101;SDS011;3081;50.584;7.032;2023-04-16T07:50:10;20.33;;;9.30;;
6101;SDS011;3081;50.584;7.032;2023-04-16T07:52:37;11.10;;;5.87;;
6101;SDS011;3081;50.584;7.032;2023-04-16T07:55:05;17.93;;;7.83;;
6101;SDS011;3081;50.584;7.032;2023-04-16T07:57:34;24.10;;;8.93;;
6101;SDS011;3081;50.584;7.032;2023-04-16T08:00:01;15.83;;;6.70;;
6101;SDS011;3081;50.584;7.032;2023-04-16T08:02:30;16.23;;;6.83;;
6101;SDS011;3081;50.584;7.032;2023-04-16T08:04:57;27.50;;;12.17;;
6101;SDS011;3081;50.584;7.032;2023-04-16T08:07:24;23.00;;;7.10;;
6101;SDS011;3081;50.584;7.032;2023-04-16T08:09:51;23.60;;;9.83;;
6101;SDS011;3081;50.584;7.032;2023-04-16T08:12:18;31.93;;;11.40;;
6101;SDS011;3081;50.584;7.032;2023-04-16T08:14:47;33.27;;;11.40;;
6101;SDS011;3081;50.584;7.032;2023-04-16T08:17:14;42.27;;;13.63;;
6101;SDS011;3081;50.584;7.032;2023-04-16T08:19:41;32.90;;;11.23;;
6101;SDS011;3081;50.584;7.032;2023-04-16T08:22:09;36.93;;;13.60;;
6101;SDS011;3081;50.584;7.032;2023-04-16T08:24:36;45.57;;;13.07;;
6101;SDS011;3081;50.584;7.032;2023-04-16T08:27:03;18.40;;;7.90;;
6101;SDS011;3081;50.584;7.032;2023-04-16T08:29:30;43.20;;;14.60;;
6101;SDS011;3081;50.584;7.032;2023-04-16T08:31:59;45.37;;;15.10;;
6101;SDS011;3081;50.584;7.032;2023-04-16T08:34:26;41.57;;;15.53;;
6101;SDS011;3081;50.584;7.032;2023-04-16T08:36:52;32.17;;;10.00;;
6101;SDS011;3081;50.584;7.032;2023-04-16T08:39:20;15.10;;;7.40;;
6101;SDS011;3081;50.584;7.032;2023-04-16T08:41:47;16.00;;;7.80;;
6101;SDS011;3081;50.584;7.032;2023-04-16T08:44:18;25.57;;;10.33;;
6101;SDS011;3081;50.584;7.032;2023-04-16T08:46:46;26.53;;;9.90;;
6101;SDS011;3081;50.584;7.032;2023-04-16T08:49:16;30.20;;;10.00;;
6101;SDS011;3081;50.584;7.032;2023-04-16T08:51:44;16.93;;;7.40;;
6101;SDS011;3081;50.584;7.032;2023-04-16T08:54:19;35.43;;;14.60;;
6101;SDS011;3081;50.584;7.032;2023-04-16T08:56:53;25.17;;;10.27;;
6101;SDS011;3081;50.584;7.032;2023-04-16T08:59:23;26.73;;;10.53;;
6101;SDS011;3081;50.584;7.032;2023-04-16T09:01:51;24.87;;;11.50;;
6101;SDS011;3081;50.584;7.032;2023-04-16T09:04:22;20.97;;;8.93;;
6101;SDS011;3081;50.584;7.032;2023-04-16T09:06:51;32.33;;;12.77;;
6101;SDS011;3081;50.584;7.032;2023-04-16T09:09:19;27.30;;;9.10;;
6101;SDS011;3081;50.584;7.032;2023-04-16T09:11:48;23.73;;;10.20;;
6101;SDS011;3081;50.584;7.032;2023-04-16T09:14:17;30.37;;;11.93;;
6101;SDS011;3081;50.584;7.032;2023-04-16T09:16:44;46.20;;;16.30;;
6101;SDS011;3081;50.584;7.032;2023-04-16T09:19:12;54.93;;;16.23;;
6101;SDS011;3081;50.584;7.032;2023-04-16T09:21:41;40.23;;;13.60;;
6101;SDS011;3081;50.584;7.032;2023-04-16T09:24:10;33.10;;;12.77;;
6101;SDS011;3081;50.584;7.032;2023-04-16T09:26:39;49.50;;;14.03;;
6101;SDS011;3081;50.584;7.032;2023-04-16T09:29:08;46.33;;;12.53;;
6101;SDS011;3081;50.584;7.032;2023-04-16T09:31:35;65.47;;;16.53;;
6101;SDS011;3081;50.584;7.032;2023-04-16T09:34:02;30.10;;;12.97;;
6101;SDS011;3081;50.584;7.032;2023-04-16T09:36:31;40.47;;;13.87;;
6101;SDS011;3081;50.584;7.032;2023-04-16T09:38:59;43.73;;;14.77;;
6101;SDS011;3081;50.584;7.032;2023-04-16T09:41:28;57.03;;;19.83;;
6101;SDS011;3081;50.584;7.032;2023-04-16T09:43:56;78.03;;;20.63;;
6101;SDS011;3081;50.584;7.032;2023-04-16T09:46:24;85.70;;;22.70;;
6101;SDS011;3081;50.584;7.032;2023-04-16T09:48:55;77.57;;;18.97;;
6101;SDS011;3081;50.584;7.032;2023-04-16T09:51:22;84.70;;;27.13;;
6101;SDS011;3081;50.584;7.032;2023-04-16T09:53:51;94.13;;;28.20;;
6101;SDS011;3081;50.584;7.032;2023-04-16T09:56:20;51.13;;;19.60;;
6101;SDS011;3081;50.584;7.032;2023-04-16T09:58:50;74.23;;;24.40;;
6101;SDS011;3081;50.584;7.032;2023-04-16T10:01:21;94.30;;;30.30;;
6101;SDS011;3081;50.584;7.032;2023-04-16T10:03:48;108.00;;;30.83;;
6101;SDS011;3081;50.584;7.032;2023-04-16T10:06:16;112.37;;;31.80;;
6101;SDS011;3081;50.584;7.032;2023-04-16T10:08:45;89.33;;;26.70;;
6101;SDS011;3081;50.584;7.032;2023-04-16T10:11:13;127.80;;;35.00;;
6101;SDS011;3081;50.584;7.032;2023-04-16T10:13:41;156.50;;;40.30;;
6101;SDS011;3081;50.584;7.032;2023-04-16T10:16:09;126.80;;;34.27;;
6101;SDS011;3081;50.584;7.032;2023-04-16T10:18:36;93.73;;;31.00;;
6101;SDS011;3081;50.584;7.032;2023-04-16T10:21:05;117.97;;;33.10;;
6101;SDS011;3081;50.584;7.032;2023-04-16T10:23:32;138.27;;;36.93;;
6101;SDS011;3081;50.584;7.032;2023-04-16T10:26:00;111.50;;;33.50;;
6101;SDS011;3081;50.584;7.032;2023-04-16T10:28:27;110.77;;;30.37;;
6101;SDS011;3081;50.584;7.032;2023-04-16T10:30:56;40.93;;;17.60;;
6101;SDS011;3081;50.584;7.032;2023-04-16T10:33:25;113.73;;;30.93;;
6101;SDS011;3081;50.584;7.032;2023-04-16T10:36:05;123.63;;;39.53;;
6101;SDS011;3081;50.584;7.032;2023-04-16T10:38:34;80.63;;;27.43;;
6101;SDS011;3081;50.584;7.032;2023-04-16T10:41:04;99.93;;;32.13;;
6101;SDS011;3081;50.584;7.032;2023-04-16T10:43:33;109.23;;;32.30;;
6101;SDS011;3081;50.584;7.032;2023-04-16T10:48:59;87.43;;;29.67;;
6101;SDS011;3081;50.584;7.032;2023-04-16T10:51:27;48.20;;;16.13;;
6101;SDS011;3081;50.584;7.032;2023-04-16T10:53:55;84.23;;;28.13;;
6101;SDS011;3081;50.584;7.032;2023-04-16T10:56:23;71.07;;;27.23;;
6101;SDS011;3081;50.584;7.032;2023-04-16T10:58:51;75.30;;;29.30;;
6101;SDS011;3081;50.584;7.032;2023-04-16T11:01:25;84.33;;;27.70;;
6101;SDS011;3081;50.584;7.032;2023-04-16T11:03:58;71.37;;;28.27;;
6101;SDS011;3081;50.584;7.032;2023-04-16T11:06:27;84.20;;;31.10;;
6101;SDS011;3081;50.584;7.032;2023-04-16T11:08:55;58.57;;;25.93;;
6101;SDS011;3081;50.584;7.032;2023-04-16T11:11:22;66.33;;;26.33;;
6101;SDS011;3081;50.584;7.032;2023-04-16T11:13:49;49.90;;;23.20;;
6101;SDS011;3081;50.584;7.032;2023-04-16T11:16:21;56.80;;;23.03;;
6101;SDS011;3081;50.584;7.032;2023-04-16T11:18:52;61.83;;;25.80;;
6101;SDS011;3081;50.584;7.032;2023-04-16T11:21:20;44.80;;;18.87;;
6101;SDS011;3081;50.584;7.032;2023-04-16T11:23:49;39.03;;;19.63;;
6101;SDS011;3081;50.584;7.032;2023-04-16T11:26:22;26.50;;;12.67;;
6101;SDS011;3081;50.584;7.032;2023-04-16T11:28:50;27.17;;;13.20;;
6101;SDS011;3081;50.584;7.032;2023-04-16T11:31:18;46.67;;;18.30;;
6101;SDS011;3081;50.584;7.032;2023-04-16T11:33:45;51.23;;;24.70;;
6101;SDS011;3081;50.584;7.032;2023-04-16T11:36:13;36.60;;;17.27;;
6101;SDS011;3081;50.584;7.032;2023-04-16T11:38:40;37.83;;;16.20;;
6101;SDS011;3081;50.584;7.032;2023-04-16T11:41:07;29.10;;;15.17;;
6101;SDS011;3081;50.584;7.032;2023-04-16T11:43:35;24.00;;;11.77;;
6101;SDS011;3081;50.584;7.032;2023-04-16T11:46:02;32.17;;;16.03;;
6101;SDS011;3081;50.584;7.032;2023-04-16T11:51:14;31.63;;;16.50;;
6101;SDS011;3081;50.584;7.032;2023-04-16T11:53:48;28.77;;;14.30;;
6101;SDS011;3081;50.584;7.032;2023-04-16T11:56:23;43.57;;;20.90;;
6101;SDS011;3081;50.584;7.032;2023-04-16T11:59:05;32.70;;;19.27;;
6101;SDS011;3081;50.584;7.032;2023-04-16T12:01:33;36.37;;;18.53;;
6101;SDS011;3081;50.584;7.032;2023-04-16T12:04:01;39.13;;;18.40;;
6101;SDS011;3081;50.584;7.032;2023-04-16T12:06:30;46.43;;;20.77;;
6101;SDS011;3081;50.584;7.032;2023-04-16T12:08:57;40.40;;;20.50;;
6101;SDS011;3081;50.584;7.032;2023-04-16T12:14:06;62.50;;;29.80;;
6101;SDS011;3081;50.584;7.032;2023-04-16T12:16:33;54.70;;;28.10;;
6101;SDS011;3081;50.584;7.032;2023-04-16T12:19:01;37.10;;;18.20;;
6101;SDS011;3081;50.584;7.032;2023-04-16T12:21:36;41.13;;;18.70;;
6101;SDS011;3081;50.584;7.032;2023-04-16T12:24:08;47.47;;;25.67;;
6101;SDS011;3081;50.584;7.032;2023-04-16T12:26:40;35.67;;;18.97;;
6101;SDS011;3081;50.584;7.032;2023-04-16T12:29:15;35.77;;;20.17;;
6101;SDS011;3081;50.584;7.032;2023-04-16T12:31:43;42.43;;;23.50;;
6101;SDS011;3081;50.584;7.032;2023-04-16T12:34:10;31.20;;;14.70;;
6101;SDS011;3081;50.584;7.032;2023-04-16T12:36:40;46.33;;;22.03;;
6101;SDS011;3081;50.584;7.032;2023-04-16T12:39:07;43.73;;;23.13;;
6101;SDS011;3081;50.584;7.032;2023-04-16T12:41:36;28.57;;;14.17;;
6101;SDS011;3081;50.584;7.032;2023-04-16T12:44:04;37.97;;;18.43;;
6101;SDS011;3081;50.584;7.032;2023-04-16T12:46:33;20.20;;;10.93;;
6101;SDS011;3081;50.584;7.032;2023-04-16T12:49:01;35.37;;;19.70;;
6101;SDS011;3081;50.584;7.032;2023-04-16T12:51:28;36.47;;;19.43;;
6101;SDS011;3081;50.584;7.032;2023-04-16T12:53:57;40.13;;;23.90;;
6101;SDS011;3081;50.584;7.032;2023-04-16T12:56:24;40.43;;;23.50;;
6101;SDS011;3081;50.584;7.032;2023-04-16T12:58:51;38.83;;;21.17;;
6101;SDS011;3081;50.584;7.032;2023-04-16T13:01:18;33.67;;;17.87;;
6101;SDS011;3081;50.584;7.032;2023-04-16T13:03:45;39.80;;;24.57;;
6101;SDS011;3081;50.584;7.032;2023-04-16T13:06:13;44.53;;;23.67;;
6101;SDS011;3081;50.584;7.032;2023-04-16T13:08:40;25.47;;;14.00;;
6101;SDS011;3081;50.584;7.032;2023-04-16T13:11:09;34.03;;;16.90;;
6101;SDS011;3081;50.584;7.032;2023-04-16T13:13:36;17.47;;;9.80;;
6101;SDS011;3081;50.584;7.032;2023-04-16T13:16:03;30.63;;;17.57;;
6101;SDS011;3081;50.584;7.032;2023-04-16T13:18:32;34.17;;;18.60;;
6101;SDS011;3081;50.584;7.032;2023-04-16T13:21:00;35.70;;;20.27;;
6101;SDS011;3081;50.584;7.032;2023-04-16T13:23:27;38.60;;;22.13;;
6101;SDS011;3081;50.584;7.032;2023-04-16T13:25:54;38.70;;;23.60;;
6101;SDS011;3081;50.584;7.032;2023-04-16T13:28:22;42.27;;;21.97;;
6101;SDS011;3081;50.584;7.032;2023-04-16T13:30:49;30.87;;;15.10;;
6101;SDS011;3081;50.584;7.032;2023-04-16T13:33:17;32.97;;;17.67;;
6101;SDS011;3081;50.584;7.032;2023-04-16T13:35:45;35.83;;;21.40;;
6101;SDS011;3081;50.584;7.032;2023-04-16T13:38:11;35.70;;;16.93;;
6101;SDS011;3081;50.584;7.032;2023-04-16T13:40:38;29.80;;;16.37;;
6101;SDS011;3081;50.584;7.032;2023-04-16T13:43:05;32.73;;;19.37;;
6101;SDS011;3081;50.584;7.032;2023-04-16T13:45:34;29.37;;;15.40;;
6101;SDS011;3081;50.584;7.032;2023-04-16T13:48:00;35.10;;;20.63;;
6101;SDS011;3081;50.584;7.032;2023-04-16T13:50:27;32.77;;;19.70;;
6101;SDS011;3081;50.584;7.032;2023-04-16T13:52:54;33.93;;;21.43;;
6101;SDS011;3081;50.584;7.032;2023-04-16T13:55:21;35.07;;;20.23;;
6101;SDS011;3081;50.584;7.032;2023-04-16T13:57:48;29.47;;;16.50;;
6101;SDS011;3081;50.584;7.032;2023-04-16T14:00:18;33.40;;;19.57;;
6101;SDS011;3081;50.584;7.032;2023-04-16T14:02:47;29.63;;;15.77;;
6101;SDS011;3081;50.584;7.032;2023-04-16T14:05:14;33.90;;;19.00;;
6101;SDS011;3081;50.584;7.032;2023-04-16T14:07:41;34.27;;;19.80;;
6101;SDS011;3081;50.584;7.032;2023-04-16T14:10:08;33.43;;;21.67;;
6101;SDS011;3081;50.584;7.032;2023-04-16T14:12:35;31.60;;;16.43;;
6101;SDS011;3081;50.584;7.032;2023-04-16T14:15:03;30.70;;;17.17;;
6101;SDS011;3081;50.584;7.032;2023-04-16T14:17:33;29.43;;;14.47;;
6101;SDS011;3081;50.584;7.032;2023-04-16T14:20:02;35.00;;;20.17;;
6101;SDS011;3081;50.584;7.032;2023-04-16T14:22:30;22.90;;;13.10;;
6101;SDS011;3081;50.584;7.032;2023-04-16T14:24:58;32.50;;;15.27;;
6101;SDS011;3081;50.584;7.032;2023-04-16T14:27:25;33.93;;;18.60;;
6101;SDS011;3081;50.584;7.032;2023-04-16T14:29:52;34.13;;;15.27;;
6101;SDS011;3081;50.584;7.032;2023-04-16T14:32:19;32.70;;;17.93;;
6101;SDS011;3081;50.584;7.032;2023-04-16T14:34:46;30.37;;;16.03;;
6101;SDS011;3081;50.584;7.032;2023-04-16T14:37:16;41.60;;;21.03;;
6101;SDS011;3081;50.584;7.032;2023-04-16T14:39:43;28.00;;;16.23;;
6101;SDS011;3081;50.584;7.032;2023-04-16T14:42:10;24.83;;;13.00;;
6101;SDS011;3081;50.584;7.032;2023-04-16T14:44:37;30.97;;;15.00;;
6101;SDS011;3081;50.584;7.032;2023-04-16T14:47:04;18.13;;;10.20;;
6101;SDS011;3081;50.584;7.032;2023-04-16T14:49:32;26.30;;;13.40;;
6101;SDS011;3081;50.584;7.032;2023-04-16T14:51:59;28.50;;;17.47;;
6101;SDS011;3081;50.584;7.032;2023-04-16T14:54:30;27.20;;;14.27;;
6101;SDS011;3081;50.584;7.032;2023-04-16T14:56:58;28.77;;;14.80;;
6101;SDS011;3081;50.584;7.032;2023-04-16T14:59:26;25.93;;;15.40;;
6101;SDS011;3081;50.584;7.032;2023-04-16T15:01:53;38.13;;;16.30;;